Time;durP1;ratioP1;P1;durP2;ratioP2;P2;SDS_P1;SDS_P2;PMS_P1;PMS_P2;Temp;Humidity;BMP_temperature;BMP_pressure;BME280_temperature;BME280_humidity;BME280_pressure;Samples;Min_cycle;Max_cycle;Signal;HPM_P1;HPM_P2
2022/10/06 00:02:11;;;;;;;3.60;1.85;;;17.00;99.90;;;15.84;77.96;100909.19;4966846;28;20109;-76
2022/10/06 00:04:37;;;;;;;3.42;1.70;;;17.00;99.90;;;15.84;78.19;100906.44;4961517;28;20394;-77
2022/10/06 00:07:04;;;;;;;4.32;2.10;;;16.90;99.90;;;15.95;77.30;100900.09;4961990;28;20038;-77
2022/10/06 00:09:29;;;;;;;5.10;1.73;;;17.00;99.90;;;15.89;77.54;100903.78;4961806;28;20097;-77
2022/10/06 00:11:55;;;;;;;4.78;1.98;;;17.00;99.90;;;15.93;77.23;100899.50;4961942;28;20121;-77
2022/10/06 00:14:21;;;;;;;3.35;1.80;;;17.10;99.90;;;16.09;75.85;100897.84;4963818;28;20404;-76
2022/10/06 00:16:46;;;;;;;5.32;1.70;;;17.20;99.90;;;16.33;74.93;100919.75;4961956;28;20619;-75
2022/10/06 00:19:12;;;;;;;4.18;2.00;;;17.40;99.90;;;16.38;74.58;100916.22;4962905;28;20034;-78
2022/10/06 00:21:38;;;;;;;3.60;1.63;;;17.50;99.90;;;16.38;74.44;100916.22;4962860;28;20030;-77
2022/10/06 00:24:04;;;;;;;4.47;1.70;;;17.50;99.90;;;16.33;74.74;100910.63;4966692;28;20026;-76
2022/10/06 00:26:30;;;;;;;3.85;1.60;;;17.50;99.90;;;16.36;73.64;100921.16;4967957;28;20026;-76
2022/10/06 00:28:55;;;;;;;3.63;1.80;;;17.50;99.90;;;16.31;77.06;100927.41;4976679;28;20035;-77
2022/10/06 00:31:22;;;;;;;4.90;1.85;;;17.50;99.90;;;16.13;79.77;100974.41;4961153;28;20397;-78
2022/10/06 00:33:49;;;;;;;3.13;1.58;;;17.30;99.90;;;15.77;78.96;101018.53;4981211;28;21066;-79
2022/10/06 00:36:14;;;;;;;2.17;0.60;;;17.00;99.90;;;14.99;78.14;101010.47;4980451;28;20573;-76
2022/10/06 00:38:40;;;;;;;2.35;0.65;;;16.40;99.90;;;14.60;81.96;101024.56;4961593;28;20106;-76
2022/10/06 00:41:15;;;;;;;1.30;0.60;;;16.00;99.90;;;14.18;87.43;101039.91;4974371;28;20022;-78
2022/10/06 00:43:58;;;;;;;2.00;0.70;;;15.60;99.90;;;13.81;94.56;101034.50;4959818;28;20041;-77
2022/10/06 00:46:34;;;;;;;1.73;0.60;;;15.20;99.90;;;13.33;100.00;101072.47;4966537;28;20146;-77
2022/10/06 00:49:44;;;;;;;1.17;0.43;;;14.70;99.90;;;12.97;100.00;101095.94;4964378;28;20041;-76
2022/10/06 00:52:18;;;;;;;2.10;0.63;;;14.40;99.90;;;12.75;100.00;101088.09;4960787;28;20506;-75
2022/10/06 00:54:43;;;;;;;0.80;0.52;;;14.10;99.90;;;12.59;100.00;101094.09;4957221;28;20029;-78
2022/10/06 00:57:11;;;;;;;2.65;0.75;;;13.90;99.90;;;12.44;100.00;101100.69;4966637;28;20401;-77
2022/10/06 00:59:38;;;;;;;2.13;0.82;;;13.80;99.90;;;12.22;100.00;101091.94;4974611;28;20475;-77
2022/10/06 01:02:47;;;;;;;1.92;0.68;;;13.70;99.90;;;12.20;100.00;101118.69;4974613;28;20571;-79
2022/10/06 01:05:43;;;;;;;3.08;0.80;;;13.50;99.90;;;12.05;100.00;101076.00;4970978;28;20038;-76
2022/10/06 01:08:09;;;;;;;5.43;1.00;;;13.40;99.90;;;11.94;100.00;101077.53;4974781;28;20517;-77
2022/10/06 01:10:35;;;;;;;1.95;0.88;;;13.30;99.90;;;11.90;100.00;101070.78;4977240;28;20026;-78
2022/10/06 01:13:01;;;;;;;2.38;0.80;;;13.20;99.90;;;11.86;100.00;101064.06;4965216;28;20031;-79
2022/10/06 01:15:28;;;;;;;2.75;0.70;;;13.20;99.90;;;11.85;100.00;101073.31;4962506;28;20031;-76
2022/10/06 01:18:01;;;;;;;1.65;0.85;;;13.20;99.90;;;11.74;100.00;101080.28;4958065;28;20034;-78
2022/10/06 01:20:28;;;;;;;2.03;0.90;;;13.10;99.90;;;11.73;100.00;101094.19;4960311;28;20089;-78
2022/10/06 01:23:05;;;;;;;2.35;0.75;;;13.10;99.90;;;11.78;100.00;101100.66;4964802;28;20577;-78
2022/10/06 01:25:36;;;;;;;1.80;0.50;;;13.00;99.90;;;11.77;100.00;101104.47;4962809;28;20046;-78
2022/10/06 01:28:06;;;;;;;1.52;0.50;;;13.00;99.90;;;11.79;100.00;101101.53;4958272;28;20046;-78
2022/10/06 01:30:40;;;;;;;2.42;0.63;;;13.10;99.90;;;11.74;100.00;101113.09;4959597;28;20622;-77
2022/10/06 01:33:06;;;;;;;1.65;0.50;;;13.10;99.90;;;11.80;100.00;101116.88;4963061;28;20034;-76
2022/10/06 01:35:32;;;;;;;1.50;0.60;;;13.20;99.90;;;11.80;100.00;101125.94;4962031;28;20114;-77
2022/10/06 01:37:59;;;;;;;1.75;0.68;;;13.10;99.90;;;11.80;100.00;101120.47;4960263;28;20486;-77
2022/10/06 01:40:28;;;;;;;2.08;0.50;;;13.10;99.90;;;11.80;100.00;101139.59;4959651;28;20031;-80
2022/10/06 01:42:55;;;;;;;1.80;0.50;;;13.10;99.90;;;11.69;100.00;101134.75;4968228;28;20030;-79
2022/10/06 01:45:24;;;;;;;1.45;0.65;;;13.10;99.90;;;11.79;100.00;101156.19;4969854;28;20478;-76
2022/10/06 01:47:51;;;;;;;0.95;0.38;;;13.10;99.90;;;11.80;100.00;101155.16;4967471;28;20034;-77
2022/10/06 01:50:17;;;;;;;2.35;0.43;;;13.10;99.90;;;11.80;100.00;101146.94;4963701;28;20030;-78
2022/10/06 01:52:43;;;;;;;1.80;0.70;;;13.10;99.90;;;11.85;100.00;101162.72;4977314;28;20784;-78
2022/10/06 01:55:09;;;;;;;2.10;0.50;;;13.10;99.90;;;11.80;100.00;101156.00;4968814;28;20041;-78
2022/10/06 01:57:40;;;;;;;2.38;0.50;;;13.10;99.90;;;11.82;100.00;101160.41;4964630;28;20548;-79
2022/10/06 02:00:09;;;;;;;2.95;0.93;;;13.10;99.90;;;11.84;100.00;101161.88;4969757;28;20034;-78
2022/10/06 02:02:39;;;;;;;2.90;0.43;;;13.10;99.90;;;11.84;100.00;101159.13;4964012;28;20046;-77
2022/10/06 02:05:05;;;;;;;1.15;0.40;;;13.10;99.90;;;11.76;100.00;101153.91;4969821;28;20035;-78
2022/10/06 02:07:37;;;;;;;1.08;0.20;;;13.10;99.90;;;11.83;100.00;101157.44;4966536;28;20482;-78
2022/10/06 02:10:05;;;;;;;1.25;0.32;;;13.10;99.90;;;11.83;100.00;101156.63;4964337;28;20035;-80
2022/10/06 02:12:33;;;;;;;1.73;0.43;;;13.10;99.90;;;11.82;100.00;101161.25;4962955;28;20031;-79
2022/10/06 02:15:00;;;;;;;1.30;0.40;;;13.10;99.90;;;11.79;100.00;101173.41;4982946;28;20022;-79
2022/10/06 02:17:28;;;;;;;1.08;0.20;;;13.10;99.90;;;11.84;100.00;101161.03;4963727;28;20042;-79
2022/10/06 02:19:54;;;;;;;1.17;0.40;;;13.10;99.90;;;11.79;100.00;101173.41;4961514;28;20379;-78
2022/10/06 02:22:19;;;;;;;1.85;0.32;;;13.10;99.90;;;11.75;100.00;101171.34;4960322;28;20086;-78
2022/10/06 02:24:47;;;;;;;2.63;0.43;;;13.10;99.90;;;11.81;100.00;101181.44;4948733;28;20038;-80
2022/10/06 02:27:13;;;;;;;1.25;0.30;;;13.10;99.90;;;11.75;100.00;101185.84;4965385;28;20030;-78
2022/10/06 02:29:39;;;;;;;3.15;0.32;;;13.10;99.90;;;11.83;100.00;101193.00;4968423;28;20049;-78
2022/10/06 02:32:06;;;;;;;3.00;0.43;;;13.10;99.90;;;11.76;100.00;101190.25;4963370;28;20035;-79
2022/10/06 02:34:33;;;;;;;2.63;0.30;;;13.10;99.90;;;11.76;100.00;101211.28;4965255;28;20092;-78
2022/10/06 02:36:59;;;;;;;3.90;0.40;;;13.10;99.90;;;11.79;100.00;101221.81;4969271;28;20030;-79
2022/10/06 02:39:25;;;;;;;4.15;0.40;;;13.10;99.90;;;11.74;100.00;101227.06;4964740;28;20046;-78
2022/10/06 02:41:50;;;;;;;5.55;0.65;;;13.00;99.90;;;11.74;100.00;101238.00;4965935;28;20027;-79
2022/10/06 02:44:18;;;;;;;2.03;0.40;;;13.00;99.90;;;11.68;100.00;101247.06;4963399;28;20026;-78
2022/10/06 02:46:44;;;;;;;3.13;0.52;;;13.00;99.90;;;11.66;100.00;101247.25;4961980;28;20086;-78
2022/10/06 02:49:10;;;;;;;1.27;0.60;;;13.00;99.90;;;11.73;100.00;101253.53;4962644;28;20031;-79
2022/10/06 02:51:36;;;;;;;2.08;0.57;;;13.00;99.90;;;11.85;100.00;101269.34;4966430;28;20043;-79
2022/10/06 02:54:02;;;;;;;1.50;0.65;;;13.10;99.90;;;11.89;100.00;101270.59;4966472;28;20356;-78
2022/10/06 02:56:28;;;;;;;3.13;0.70;;;13.20;99.90;;;11.94;100.00;101270.78;4966192;28;20033;-79
2022/10/06 02:58:55;;;;;;;7.13;0.90;;;13.20;99.90;;;11.92;100.00;101281.09;4965961;28;20050;-80
2022/10/06 03:01:30;;;;;;;4.75;0.73;;;13.20;99.90;;;11.87;100.00;101289.94;4965849;28;20512;-77
2022/10/06 03:03:59;;;;;;;3.42;0.93;;;13.10;99.90;;;11.83;100.00;101279.66;4965521;28;20058;-78
2022/10/06 03:06:30;;;;;;;3.28;0.77;;;13.20;99.90;;;11.85;100.00;101291.22;4961157;28;20035;-75
2022/10/06 03:09:05;;;;;;;4.95;1.02;;;13.10;99.90;;;11.85;100.00;101300.22;4961017;28;20031;-79
2022/10/06 03:11:36;;;;;;;3.97;1.73;;;13.10;99.90;;;11.82;100.00;101306.13;4961703;28;20163;-80
2022/10/06 03:14:04;;;;;;;4.05;1.08;;;13.10;99.90;;;11.94;100.00;101320.88;4956897;28;20019;-78
2022/10/06 03:16:38;;;;;;;3.78;1.10;;;13.20;99.90;;;11.86;100.00;101318.31;4961960;28;20597;-78
2022/10/06 03:19:08;;;;;;;3.88;1.05;;;13.10;99.90;;;11.82;100.00;101322.53;4962186;28;20049;-78
2022/10/06 03:21:42;;;;;;;6.72;1.10;;;13.10;99.90;;;11.81;100.00;101331.78;4952708;28;20019;-75
2022/10/06 03:24:09;;;;;;;8.88;1.50;;;13.10;99.90;;;11.88;100.00;101326.31;4964477;28;20038;-79
2022/10/06 03:26:41;;;;;;;;;;;13.10;99.90;;;11.82;100.00;101329.91;4967101;28;20027;-78
2022/10/06 03:29:09;;;;;;;3.35;1.00;;;13.10;99.90;;;11.82;100.00;101330.72;4967375;28;19964;-75
2022/10/06 03:31:37;;;;;;;4.47;1.17;;;13.10;99.90;;;11.84;100.00;101339.56;4980575;28;20034;-76
2022/10/06 03:34:03;;;;;;;6.65;1.20;;;13.10;99.90;;;11.75;100.00;101355.31;4966951;28;20045;-79
2022/10/06 03:36:33;;;;;;;4.45;0.90;;;13.00;99.90;;;11.70;100.00;101337.88;4965977;28;20073;-79
2022/10/06 03:39:03;;;;;;;6.03;1.30;;;13.00;99.90;;;11.79;100.00;101350.28;4961288;28;20486;-78
2022/10/06 03:41:35;;;;;;;5.72;1.20;;;13.00;99.90;;;11.76;99.88;101347.97;4951404;28;20035;-78
2022/10/06 03:44:04;;;;;;;7.35;1.20;;;13.00;99.90;;;11.78;100.00;101356.81;4961210;28;20066;-77
2022/10/06 03:46:34;;;;;;;2.97;1.00;;;13.00;99.90;;;11.74;100.00;101355.53;4975313;28;20139;-78
2022/10/06 03:49:04;;;;;;;7.78;1.50;;;13.00;99.90;;;11.66;100.00;101353.84;4956709;28;20054;-78
2022/10/06 03:51:39;;;;;;;4.47;1.02;;;13.00;99.90;;;11.59;100.00;101347.53;4969430;28;20130;-78
2022/10/06 03:54:09;;;;;;;4.35;1.30;;;12.90;99.90;;;11.49;100.00;101359.66;4955211;28;20081;-76
2022/10/06 03:56:39;;;;;;;6.32;1.10;;;12.80;99.90;;;11.49;100.00;101372.50;4953437;28;20054;-79
2022/10/06 03:59:10;;;;;;;5.90;1.20;;;12.70;99.90;;;11.43;100.00;101367.88;4959684;28;20037;-77
2022/10/06 04:01:44;;;;;;;4.15;1.00;;;12.70;99.90;;;11.49;100.00;101373.31;4960578;28;20094;-80
2022/10/06 04:04:13;;;;;;;5.82;1.30;;;12.70;99.90;;;11.47;100.00;101382.78;4958825;28;20035;-80
2022/10/06 04:06:43;;;;;;;4.43;1.02;;;12.70;99.90;;;11.35;100.00;101375.16;4964956;28;20367;-80
2022/10/06 04:09:13;;;;;;;7.45;1.10;;;12.70;99.90;;;11.23;100.00;101387.75;4961706;28;20119;-77
2022/10/06 04:11:41;;;;;;;6.03;1.40;;;12.50;99.90;;;11.21;100.00;101396.13;4960911;28;20023;-76
2022/10/06 04:14:11;;;;;;;6.22;1.25;;;12.50;99.90;;;11.21;100.00;101389.84;4965386;28;20027;-79
2022/10/06 04:16:40;;;;;;;6.65;1.45;;;12.50;99.90;;;11.51;100.00;101403.19;4979311;28;20130;-77
2022/10/06 04:19:10;;;;;;;7.88;1.20;;;12.70;99.90;;;11.47;100.00;101401.91;4966036;28;20044;-76
2022/10/06 04:21:41;;;;;;;6.47;1.60;;;12.70;99.90;;;11.52;100.00;101407.59;4962042;28;20102;-75
2022/10/06 04:24:10;;;;;;;6.82;1.20;;;12.80;99.90;;;11.53;100.00;101412.03;4975096;28;20063;-78
2022/10/06 04:26:45;;;;;;;4.85;1.35;;;12.80;99.90;;;11.54;100.00;101412.84;4963381;28;20038;-76
2022/10/06 04:29:13;;;;;;;6.88;1.20;;;12.80;99.90;;;11.51;100.00;101417.69;4956444;28;20402;-76
2022/10/06 04:31:41;;;;;;;7.72;1.23;;;12.80;99.90;;;11.44;100.00;101426.91;4957795;28;20026;-75
2022/10/06 04:34:12;;;;;;;9.43;1.15;;;12.70;99.90;;;11.34;100.00;101427.28;4964279;28;20027;-77
2022/10/06 04:36:41;;;;;;;5.50;1.20;;;12.60;99.90;;;11.32;100.00;101438.41;4960066;28;20038;-77
2022/10/06 04:39:12;;;;;;;6.00;1.20;;;12.60;99.90;;;11.32;100.00;101432.94;4962018;28;20561;-78
2022/10/06 04:41:45;;;;;;;8.38;1.90;;;12.60;99.90;;;11.47;100.00;101446.47;4959927;28;20031;-77
2022/10/06 04:44:11;;;;;;;7.75;1.77;;;12.70;99.90;;;11.48;100.00;101445.41;4964040;28;20031;-77
2022/10/06 04:46:37;;;;;;;8.95;1.55;;;12.70;99.90;;;11.58;100.00;101445.03;4963132;28;20077;-76
2022/10/06 04:49:04;;;;;;;7.50;1.60;;;12.80;99.90;;;11.52;100.00;101454.06;4959662;28;20097;-75
2022/10/06 04:51:31;;;;;;;8.32;1.70;;;12.80;99.90;;;11.52;99.26;101456.78;4960205;28;20050;-74
2022/10/06 04:53:59;;;;;;;9.73;1.45;;;12.80;99.90;;;11.54;98.69;101454.69;4961084;28;20375;-76
2022/10/06 04:56:29;;;;;;;6.60;1.30;;;12.80;99.90;;;11.44;99.30;101465.19;4959999;28;20038;-77
2022/10/06 04:58:57;;;;;;;7.60;1.80;;;12.70;99.90;;;11.51;96.69;101466.88;4965365;28;20027;-76
2022/10/06 05:01:28;;;;;;;6.35;1.45;;;12.80;99.90;;;11.55;95.99;101472.78;4959557;28;20449;-75
2022/10/06 05:03:57;;;;;;;8.55;1.40;;;12.80;99.90;;;11.56;93.89;101474.47;4954354;28;20026;-74
2022/10/06 05:06:33;;;;;;;4.53;1.80;;;12.80;99.90;;;11.68;90.49;101482.09;4961174;28;20019;-74
2022/10/06 05:09:03;;;;;;;8.32;1.42;;;12.90;99.90;;;11.61;90.36;101496.56;4961466;28;20030;-77
2022/10/06 05:11:32;;;;;;;10.18;1.55;;;12.90;99.90;;;11.69;88.86;101506.47;4974247;28;20062;-78
2022/10/06 05:13:59;;;;;;;12.15;2.50;;;12.90;99.90;;;11.72;87.91;101517.00;4958657;28;20559;-76
2022/10/06 05:16:29;;;;;;;9.43;1.80;;;13.00;99.90;;;11.81;86.63;101523.16;4954725;28;20030;-76
2022/10/06 05:18:57;;;;;;;7.93;2.80;;;13.00;99.90;;;11.87;86.23;101522.31;4960463;28;20436;-76
2022/10/06 05:21:29;;;;;;;7.30;1.48;;;13.10;99.90;;;11.92;85.47;101532.66;4962192;28;20505;-75
2022/10/06 05:23:57;;;;;;;8.43;1.60;;;13.20;99.90;;;11.86;85.97;101537.03;4973127;28;20572;-78
2022/10/06 05:26:27;;;;;;;6.75;1.30;;;13.20;99.90;;;11.69;86.99;101533.00;4962012;28;20104;-77
2022/10/06 05:28:54;;;;;;;6.25;1.55;;;13.10;99.90;;;11.67;87.78;101535.91;4977785;28;20036;-77
2022/10/06 05:31:37;;;;;;;6.63;2.13;;;13.00;99.90;;;11.77;87.70;101551.94;4964454;28;20089;-74
2022/10/06 05:34:04;;;;;;;10.70;1.25;;;13.00;99.90;;;11.79;88.04;101563.50;4963468;28;20394;-75
2022/10/06 05:36:32;;;;;;;11.50;2.08;;;13.10;99.90;;;11.73;88.54;101570.63;4958627;28;20022;-77
2022/10/06 05:39:00;;;;;;;7.90;1.45;;;13.00;99.90;;;11.68;89.21;101583.22;4978415;28;20035;-76
2022/10/06 05:41:32;;;;;;;9.63;1.23;;;13.00;99.90;;;11.76;88.09;101586.63;4963951;28;20594;-75
2022/10/06 05:44:01;;;;;;;8.68;1.50;;;13.00;99.90;;;11.68;89.15;101575.03;4959629;28;20031;-77
2022/10/06 05:46:31;;;;;;;6.35;1.60;;;13.00;99.90;;;11.71;89.06;101574.63;4960927;28;20027;-76
2022/10/06 05:49:06;;;;;;;6.22;1.08;;;13.00;99.90;;;11.75;88.45;101597.78;4972815;28;20035;-76
2022/10/06 05:51:35;;;;;;;6.75;1.13;;;13.00;99.90;;;11.74;88.10;101598.81;4961866;28;20478;-76
2022/10/06 05:54:06;;;;;;;6.13;1.27;;;13.00;99.90;;;11.69;88.96;101604.06;4961592;28;20125;-76
2022/10/06 05:56:37;;;;;;;7.43;1.23;;;12.90;99.90;;;11.62;89.86;101604.84;4960406;28;20071;-77
2022/10/06 05:59:04;;;;;;;9.60;1.77;;;12.90;99.90;;;11.55;90.44;101611.31;4959118;28;20090;-77
2022/10/06 06:01:39;;;;;;;7.32;1.10;;;12.80;99.90;;;11.62;90.09;101617.66;4960458;28;20509;-77
2022/10/06 06:04:12;;;;;;;10.77;1.88;;;12.90;99.90;;;11.65;89.02;101631.75;4976719;28;20039;-78
2022/10/06 06:06:46;;;;;;;10.38;1.33;;;12.90;99.90;;;11.64;88.84;101630.06;4963784;28;20041;-78
2022/10/06 06:09:20;;;;;;;10.00;1.42;;;12.90;99.90;;;11.66;88.92;101632.63;4963365;28;20023;-77
2022/10/06 06:11:53;;;;;;;12.85;1.73;;;12.90;99.90;;;11.59;88.60;101632.56;4964137;28;20030;-77
2022/10/06 06:15:59;;;;;;;10.70;2.55;;;12.90;99.90;;;11.57;88.57;101648.31;4961281;28;20342;-77
2022/10/06 06:17:12;;;;;;;6.20;1.30;;;12.80;99.90;;;11.53;88.67;101647.03;4974693;28;20397;-76
2022/10/06 06:19:38;;;;;;;11.00;1.65;;;12.80;99.90;;;11.58;87.44;101657.38;4959067;28;20207;-76
2022/10/06 06:22:05;;;;;;;10.48;1.40;;;12.80;99.90;;;11.54;85.40;101648.72;4974374;28;20037;-75
2022/10/06 06:24:33;;;;;;;9.02;1.30;;;12.90;99.90;;;11.58;86.22;101655.47;4958175;28;20394;-77
2022/10/06 06:26:59;;;;;;;6.88;1.23;;;12.90;99.90;;;11.60;85.89;101671.69;4958132;28;20122;-77
2022/10/06 06:29:25;;;;;;;9.00;1.48;;;12.90;99.90;;;11.61;86.44;101678.84;4958191;28;20027;-75
2022/10/06 06:31:51;;;;;;;5.15;1.40;;;12.90;99.90;;;11.63;86.24;101687.69;4957711;28;20040;-74
2022/10/06 06:34:18;;;;;;;10.93;1.15;;;12.90;99.90;;;11.60;85.41;101682.63;4976158;28;20035;-76
2022/10/06 06:36:46;;;;;;;9.15;1.20;;;12.90;99.90;;;11.68;84.77;101689.84;4983893;28;20041;-76
2022/10/06 06:39:18;;;;;;;12.80;1.42;;;12.90;99.90;;;11.72;84.39;101691.13;4966853;28;20041;-76
2022/10/06 06:41:46;;;;;;;9.05;1.27;;;13.00;99.90;;;11.71;85.28;101705.84;4965606;28;20031;-76
2022/10/06 06:44:30;;;;;;;9.77;1.50;;;13.00;99.90;;;11.64;86.71;101695.66;4963806;28;20113;-76
2022/10/06 06:47:16;;;;;;;8.02;1.20;;;13.00;99.90;;;11.78;84.15;101713.03;4962443;28;20429;-76
2022/10/06 06:49:42;;;;;;;7.28;1.42;;;13.10;99.90;;;11.85;84.66;101718.53;4959947;28;20050;-76
2022/10/06 06:52:08;;;;;;;9.60;1.55;;;13.10;99.90;;;11.87;84.72;101727.38;4964123;28;20043;-77
2022/10/06 06:54:35;;;;;;;6.13;1.10;;;13.10;99.90;;;11.86;84.18;101728.44;4960263;28;20026;-74
2022/10/06 06:57:06;;;;;;;5.07;1.45;;;13.20;99.90;;;11.91;83.88;101733.31;4958450;28;20125;-74
2022/10/06 06:59:32;;;;;;;8.35;1.58;;;13.20;99.90;;;11.94;83.86;101750.19;4971332;28;20042;-76
2022/10/06 07:01:59;;;;;;;5.88;1.23;;;13.20;99.90;;;12.00;82.99;101750.41;4974379;28;20042;-76
2022/10/06 07:04:26;;;;;;;7.32;1.40;;;13.20;99.90;;;11.98;83.02;101736.94;4956863;28;20026;-74
2022/10/06 07:06:56;;;;;;;9.23;1.75;;;13.30;99.90;;;12.12;82.13;101762.53;4962265;28;20039;-75
2022/10/06 07:09:27;;;;;;;7.93;1.30;;;13.40;99.90;;;12.16;81.19;101747.38;4975164;28;20366;-75
2022/10/06 07:12:07;;;;;;;7.38;1.15;;;13.40;99.90;;;12.19;80.63;101763.41;4972585;28;20050;-75
2022/10/06 07:25:05;;;;;;;7.60;1.50;;;13.50;99.90;;;12.25;79.90;101767.22;4973943;28;20505;-73
2022/10/06 07:25:36;;;;;;;6.65;1.30;;;13.60;99.90;;;12.31;80.30;101782.84;4959977;28;20331;-75
2022/10/06 07:28:07;;;;;;;8.90;1.48;;;13.60;99.90;;;12.41;79.31;101796.16;4957273;28;20047;-75
2022/10/06 07:30:38;;;;;;;11.10;1.75;;;13.70;99.90;;;12.47;78.80;101791.78;4969583;28;20394;-76
2022/10/06 07:33:17;;;;;;;6.03;1.20;;;13.70;99.90;;;12.54;78.56;101800.03;4961156;28;20027;-76
2022/10/06 07:35:44;;;;;;;8.60;1.52;;;13.80;99.90;;;12.59;78.36;101812.06;4957816;28;20114;-74
2022/10/06 07:38:10;;;;;;;8.70;1.27;;;13.80;99.90;;;12.65;77.65;101826.84;4960554;28;20404;-74
2022/10/06 07:40:41;;;;;;;9.73;1.50;;;13.90;99.90;;;12.73;78.74;101818.47;4962088;28;20030;-74
2022/10/06 07:43:11;;;;;;;7.82;1.35;;;14.00;99.90;;;12.86;76.88;101820.41;4963208;28;20034;-75
2022/10/06 07:45:43;;;;;;;10.90;1.88;;;14.10;99.90;;;12.96;76.80;101844.69;4959460;28;20085;-74
2022/10/06 07:48:22;;;;;;;9.50;1.60;;;14.20;99.90;;;12.89;74.73;101843.81;4975516;28;20034;-74
2022/10/06 07:50:52;;;;;;;4.93;1.15;;;14.20;99.90;;;13.01;74.47;101841.34;4960038;28;20137;-74
2022/10/06 07:53:28;;;;;;;9.60;1.33;;;14.30;99.90;;;12.94;74.90;101835.81;4955811;28;20117;-74
2022/10/06 07:56:07;;;;;;;10.43;1.38;;;14.30;99.90;;;12.87;72.76;101837.69;4968404;28;20042;-72
2022/10/06 07:58:38;;;;;;;8.30;1.60;;;14.20;99.90;;;12.96;73.47;101858.38;4954119;28;20453;-74
2022/10/06 08:01:07;;;;;;;7.50;1.73;;;14.20;99.90;;;13.07;74.18;101848.72;4965912;28;20038;-75
2022/10/06 08:03:35;;;;;;;7.63;1.27;;;14.40;99.90;;;13.13;73.00;101858.03;4961955;28;20034;-74
2022/10/06 08:06:01;;;;;;;11.25;1.95;;;14.40;99.90;;;13.20;72.29;101858.91;4962859;28;20062;-75
2022/10/06 08:08:31;;;;;;;6.95;1.02;;;14.50;99.90;;;13.24;72.44;101868.41;4960762;28;20043;-74
2022/10/06 08:10:58;;;;;;;7.40;1.33;;;14.50;99.90;;;13.33;71.22;101874.56;4964314;28;20038;-74
2022/10/06 08:13:25;;;;;;;10.85;2.17;;;14.60;99.90;;;13.36;70.20;101871.41;4962733;28;20038;-75
2022/10/06 08:15:55;;;;;;;8.10;1.30;;;14.70;99.90;;;13.49;70.65;101878.84;4958982;28;20449;-75
2022/10/06 08:18:23;;;;;;;9.40;1.73;;;14.70;99.90;;;13.50;68.71;101884.13;4959688;28;20027;-75
2022/10/06 08:20:49;;;;;;;9.02;1.45;;;14.80;99.90;;;13.38;69.64;101894.81;4963807;28;20034;-75
2022/10/06 08:23:15;;;;;;;7.75;1.40;;;14.70;99.90;;;13.33;68.57;101894.59;4960718;28;20050;-75
2022/10/06 08:25:50;;;;;;;7.45;1.27;;;14.70;99.90;;;13.56;68.99;101890.69;4959828;28;20030;-75
2022/10/06 08:28:16;;;;;;;10.57;1.90;;;14.80;99.90;;;13.63;67.26;101907.16;4960665;28;20035;-76
2022/10/06 08:30:42;;;;;;;10.00;1.30;;;14.90;99.90;;;13.88;66.15;101901.09;4958278;28;20037;-76
2022/10/06 08:33:08;;;;;;;5.28;1.10;;;15.10;99.90;;;13.93;67.15;101909.56;4959857;28;20482;-75
2022/10/06 08:35:34;;;;;;;8.75;1.63;;;15.20;99.90;;;14.06;67.29;101903.25;4962092;28;20045;-76
2022/10/06 08:38:00;;;;;;;9.75;1.67;;;15.30;99.90;;;14.04;65.00;101906.19;4962949;28;20413;-76
2022/10/06 08:40:28;;;;;;;10.32;1.95;;;15.30;99.90;;;13.71;65.76;101911.59;4958059;28;20043;-75
2022/10/06 08:42:59;;;;;;;5.95;1.20;;;15.10;99.90;;;13.80;65.48;101905.72;4958501;28;20286;-75
2022/10/06 08:45:39;;;;;;;5.93;1.23;;;15.20;99.90;;;14.04;64.04;101916.31;4958635;28;20039;-75
2022/10/06 08:48:23;;;;;;;6.18;1.42;;;15.30;99.90;;;14.17;64.30;101899.00;4954639;28;20039;-75
2022/10/06 08:51:07;;;;;;;11.52;1.50;;;15.40;99.90;;;14.22;61.30;101905.56;4961841;28;20050;-74
2022/10/06 08:53:47;;;;;;;7.82;1.65;;;15.40;99.90;;;14.10;63.04;101907.25;4958251;28;20125;-74
2022/10/06 08:56:23;;;;;;;8.98;1.35;;;15.40;99.90;;;14.32;62.69;101912.53;4956534;28;20045;-75
2022/10/06 08:58:54;;;;;;;6.68;1.00;;;15.60;99.90;;;14.60;62.31;101925.22;4960458;28;20062;-74
2022/10/06 09:01:25;;;;;;;7.05;1.20;;;15.80;99.90;;;14.46;60.58;101929.88;4963503;28;20039;-75
2022/10/06 09:04:00;;;;;;;8.30;2.38;;;15.80;99.90;;;14.55;60.44;101934.06;4957283;28;20501;-75
2022/10/06 09:07:06;;;;;;;7.43;1.05;;;15.80;99.90;;;14.32;60.60;101943.56;4956284;28;20053;-75
2022/10/06 09:09:59;;;;;;;8.68;1.13;;;15.70;99.90;;;14.16;58.58;101931.09;4957994;28;20042;-75
2022/10/06 09:12:59;;;;;;;7.50;1.23;;;15.50;99.90;;;14.40;57.60;101934.28;4958413;28;20038;-74
2022/10/06 09:15:49;;;;;;;7.47;1.30;;;15.70;99.90;;;14.55;58.11;101947.81;4960657;28;20085;-77
2022/10/06 09:18:30;;;;;;;5.45;1.10;;;15.80;99.90;;;14.51;58.13;101933.63;4951606;28;20158;-76
2022/10/06 09:21:10;;;;;;;7.88;1.40;;;15.90;99.90;;;14.76;59.07;101960.47;4952626;28;20184;-75
2022/10/06 09:23:48;;;;;;;6.65;1.60;;;16.00;99.90;;;14.52;58.10;101951.81;4955911;28;20398;-76
2022/10/06 09:26:17;;;;;;;8.82;1.55;;;16.00;99.70;;;14.76;59.47;101956.91;4955736;28;20026;-75
2022/10/06 09:28:45;;;;;;;6.93;1.20;;;16.10;99.90;;;14.60;59.28;101950.75;4958525;28;20031;-75
2022/10/06 09:31:30;;;;;;;6.97;1.40;;;16.00;99.90;;;14.95;58.66;101966.19;4962018;28;20694;-76
2022/10/06 09:34:33;;;;;;;9.23;1.13;;;16.20;99.90;;;15.25;57.78;101962.94;4954532;28;20034;-77
2022/10/06 09:37:04;;;;;;;4.80;1.20;;;16.50;99.60;;;15.43;55.93;101967.72;4962430;28;20078;-75
2022/10/06 09:39:37;;;;;;;8.02;1.33;;;17.30;96.70;;;15.65;56.08;101971.03;4954880;28;20378;-75
2022/10/06 09:42:14;;;;;;;8.43;1.50;;;17.40;97.00;;;16.03;53.54;101974.03;4955933;28;20123;-76
2022/10/06 09:44:55;;;;;;;6.72;1.52;;;18.10;93.80;;;16.25;52.09;101980.00;4953503;28;20027;-76
2022/10/06 09:47:38;;;;;;;10.25;1.23;;;19.00;90.70;;;16.33;52.35;101974.25;4961478;28;20057;-78
2022/10/06 09:50:24;;;;;;;8.38;1.80;;;19.20;90.40;;;16.25;50.72;101980.88;4963590;28;20031;-77
2022/10/06 09:53:04;;;;;;;8.13;1.02;;;19.20;86.90;;;16.38;50.33;101973.56;4959457;28;20109;-76
2022/10/06 09:55:42;;;;;;;8.30;1.30;;;;;;;18.16;47.44;101986.91;4956565;28;20031;-76
2022/10/06 09:58:24;;;;;;;7.45;1.40;;;19.00;85.60;;;20.23;42.62;101986.84;4964280;28;20026;-78
2022/10/06 10:01:02;;;;;;;5.95;1.38;;;21.50;79.50;;;20.90;39.28;102000.13;4960665;28;20605;-75
2022/10/06 10:03:53;;;;;;;4.88;1.20;;;22.30;74.60;;;21.45;38.52;101990.09;4956855;28;20026;-75
2022/10/06 10:06:26;;;;;;;7.50;1.33;;;22.40;71.90;;;21.36;37.40;102003.56;4962057;28;20046;-75
2022/10/06 10:09:32;;;;;;;4.30;1.17;;;22.60;69.80;;;22.19;36.68;102006.50;4960732;28;20406;-76
2022/10/06 10:12:27;;;;;;;5.28;0.90;;;22.60;69.50;;;21.86;36.63;102011.97;4959780;28;20248;-79
2022/10/06 10:15:21;;;;;;;5.38;0.90;;;22.70;68.60;;;21.46;38.48;102021.44;4964273;28;20031;-79
2022/10/06 10:18:04;;;;;;;6.80;1.13;;;22.70;69.00;;;21.50;37.18;102022.63;4962159;28;20037;-82
2022/10/06 10:20:51;;;;;;;5.03;1.00;;;23.20;67.50;;;20.50;39.48;102025.00;4961188;28;20054;-84
2022/10/06 10:23:32;;;;;;;7.35;1.05;;;22.20;68.90;;;21.40;36.92;102038.03;4963180;28;20050;-84
2022/10/06 10:26:28;;;;;;;5.55;1.30;;;22.40;66.70;;;20.25;39.49;102012.38;4968752;28;20117;-78
2022/10/06 10:29:15;;;;;;;3.83;1.05;;;21.50;69.30;;;22.18;36.41;102011.19;4966385;28;20035;-78
2022/10/06 10:32:16;;;;;;;5.03;1.10;;;22.70;67.30;;;21.29;38.05;102036.22;4962633;28;20034;-80
2022/10/06 10:35:18;;;;;;;4.68;0.93;;;22.40;68.30;;;21.72;37.30;102038.47;4965595;28;20035;-82
2022/10/06 10:37:58;;;;;;;6.88;1.27;;;22.50;67.20;;;21.61;38.08;102026.34;4962436;28;20031;-80
2022/10/06 10:40:51;;;;;;;5.22;1.25;;;;;;;23.32;35.40;102030.78;4965320;28;20054;-80